This is the latest recevied weather packets stored in our database for station/object K2ATL. If no packets are shown the sender has not sent any weather packets the latest 10 day(s).
| Time | Temp. | Humidity | Pressure | Rain* | Wind** | Luminosity | Snow |
|---|---|---|---|---|---|---|---|
| 1788105563 | 23.89° C | 80% | 1109.5 hPa | 0 mm | - | 816 W/m² | - |
| 1788105260 | 25° C | 77% | 1109.6 hPa | 0 mm | - | 369 W/m² | - |
| 1788104954 | 24.44° C | 78% | 1109.6 hPa | 0 mm | - | 816 W/m² | - |
| 1788104650 | 23.89° C | 80% | 1109.6 hPa | 0 mm | - | 797 W/m² | - |
| 1788104347 | 25.56° C | 81% | 1109.5 hPa | 0 mm | - | 144 W/m² | - |
| 1788104042 | 25° C | 79% | 1109.6 hPa | 0 mm | - | 704 W/m² | - |
| 1788103741 | 24.44° C | 81% | 1109.4 hPa | 0 mm | - | 739 W/m² | - |
| 1788103436 | 26.11° C | 79% | 1109.5 hPa | 0 mm | - | 145 W/m² | - |
| 1788103130 | 23.89° C | 80% | 1109.3 hPa | 0 mm | - | 731 W/m² | - |
| 1788102829 | 22.78° C | 86% | 1109.5 hPa | 0 mm | - | 691 W/m² | - |
| 1788102524 | 22.78° C | 88% | 1109.5 hPa | 0 mm | - | 359 W/m² | - |
| 1788102224 | 24.44° C | 86% | 1109.4 hPa | 0 mm | - | 87 W/m² | - |
| 1788101918 | 25° C | 87% | 1109.6 hPa | 0 mm | - | 111 W/m² | - |
| 1788101613 | 23.33° C | 87% | 1109.3 hPa | 0 mm | - | 305 W/m² | - |
| 1788101309 | 21.67° C | 87% | 1109.5 hPa | 0 mm | - | 614 W/m² | - |
| 1788101005 | 23.89° C | 88% | 1109.5 hPa | 0 mm | - | 128 W/m² | - |
| 1788100701 | 22.22° C | 90% | 1109.5 hPa | 0 mm | - | 360 W/m² | - |
| 1788100400 | 22.78° C | 90% | 1109.3 hPa | 0 mm | - | 205 W/m² | - |
| 1788100095 | 22.78° C | 90% | 1109.6 hPa | 0 mm | - | 153 W/m² | - |
| 1788099795 | 22.78° C | 91% | 1109.4 hPa | 0 mm | - | 132 W/m² | - |
| 1788099490 | 22.78° C | 90% | 1109.4 hPa | 0 mm | - | 89 W/m² | - |
| 1788099186 | 22.78° C | 91% | 1109.5 hPa | 0 mm | - | 122 W/m² | - |
| 1788098881 | 22.78° C | 91% | 1109.6 hPa | 0 mm | - | 98 W/m² | - |
| 1788098581 | 22.22° C | 92% | 1109.5 hPa | 0 mm | - | 84 W/m² | - |
| 1788098276 | 22.22° C | 93% | 1109.5 hPa | 0 mm | - | 86 W/m² | - |
* Rain latest hour (hover to see other rain measurements)
** Current wind speed in m/s (hover to see current wind gust speed)